Time;durP1;ratioP1;P1;durP2;ratioP2;P2;SDS_P1;SDS_P2;PMS_P1;PMS_P2;Temp;Humidity;BMP_temperature;BMP_pressure;BME280_temperature;BME280_humidity;BME280_pressure;Samples;Min_cycle;Max_cycle;Signal;HPM_P1;HPM_P2
2023/02/06 00:01:51;;;;;;;1999.90;999.90;;;2.90;99.90;;;;;;5110213;28;20456;-67
2023/02/06 00:04:20;;;;;;;1999.90;999.90;;;2.90;99.90;;;;;;5109980;28;20436;-67
2023/02/06 00:06:46;;;;;;;1999.90;999.90;;;2.90;99.90;;;;;;5109805;28;20449;-66
2023/02/06 00:09:13;;;;;;;1999.90;999.90;;;2.90;99.90;;;;;;5109900;28;20438;-66
2023/02/06 00:11:40;;;;;;;1999.90;999.90;;;3.00;99.90;;;;;;5109769;28;20449;-67
2023/02/06 00:14:07;;;;;;;1999.90;999.90;;;3.00;99.90;;;;;;5108325;28;20441;-67
2023/02/06 00:16:34;;;;;;;1999.90;999.90;;;3.00;99.90;;;;;;5105034;28;20476;-66
2023/02/06 00:19:01;;;;;;;1999.90;999.90;;;3.00;99.90;;;;;;5102728;28;20458;-66
2023/02/06 00:21:30;;;;;;;1999.90;999.90;;;3.10;99.90;;;;;;5110589;28;20440;-67
2023/02/06 00:24:01;;;;;;;1999.90;999.90;;;3.10;99.90;;;;;;5110335;28;20442;-67
2023/02/06 00:26:30;;;;;;;1999.90;999.90;;;3.10;99.90;;;;;;5109946;28;20454;-67
2023/02/06 00:28:56;;;;;;;1999.90;999.90;;;3.10;99.90;;;;;;5110381;28;20506;-67
2023/02/06 00:31:23;;;;;;;1999.90;999.90;;;3.10;99.90;;;;;;5110612;28;20440;-66
2023/02/06 00:33:50;;;;;;;1999.90;999.90;;;3.10;99.90;;;;;;5110786;28;20441;-66
2023/02/06 00:36:17;;;;;;;1999.90;999.90;;;3.10;99.90;;;;;;5109897;28;20837;-67
2023/02/06 00:38:45;;;;;;;1999.90;999.90;;;3.20;99.90;;;;;;5109716;28;20788;-65
2023/02/06 00:41:11;;;;;;;1999.90;999.90;;;3.20;99.90;;;;;;5110098;28;20957;-67
2023/02/06 00:43:39;;;;;;;1999.90;999.90;;;3.20;99.90;;;;;;5109810;28;20922;-66
2023/02/06 00:46:06;;;;;;;1999.90;999.90;;;3.20;99.90;;;;;;5110324;28;20474;-67
2023/02/06 00:48:33;;;;;;;1999.90;999.90;;;3.20;99.90;;;;;;5110629;28;20437;-66
2023/02/06 00:50:59;;;;;;;1999.90;999.90;;;3.10;99.90;;;;;;5109909;28;20437;-65
2023/02/06 00:53:26;;;;;;;1999.90;999.90;;;3.20;99.90;;;;;;5110376;28;20449;-66
2023/02/06 00:55:54;;;;;;;1999.90;999.90;;;3.20;99.90;;;;;;5110188;28;20485;-66
2023/02/06 00:58:21;;;;;;;1999.90;999.90;;;3.10;99.90;;;;;;5110030;28;20442;-67
2023/02/06 01:00:48;;;;;;;1999.90;999.90;;;3.10;99.90;;;;;;5110390;28;20449;-67
2023/02/06 01:03:15;;;;;;;1999.90;999.90;;;3.10;99.90;;;;;;5109786;28;20448;-66
2023/02/06 01:05:41;;;;;;;1999.90;999.90;;;3.10;99.90;;;;;;5110258;28;20457;-68
2023/02/06 01:08:08;;;;;;;1999.90;999.90;;;3.10;99.90;;;;;;5110414;28;20919;-67
2023/02/06 01:10:35;;;;;;;1999.90;999.90;;;3.00;99.90;;;;;;5111124;28;20445;-67
2023/02/06 01:13:03;;;;;;;1999.90;999.90;;;3.00;99.90;;;;;;5111269;28;20445;-67
2023/02/06 01:15:30;;;;;;;1999.90;999.90;;;3.10;99.90;;;;;;5111269;28;20481;-67
2023/02/06 01:17:56;;;;;;;1999.90;999.90;;;3.10;99.90;;;;;;5111015;28;20438;-67
2023/02/06 01:20:24;;;;;;;1999.90;999.90;;;3.10;99.90;;;;;;5111062;28;20437;-68
2023/02/06 01:22:51;;;;;;;1999.90;999.90;;;3.10;99.90;;;;;;5110788;28;20957;-67
2023/02/06 01:25:18;;;;;;;1999.90;999.90;;;3.10;99.90;;;;;;5110077;28;20954;-67
2023/02/06 01:27:44;;;;;;;1999.90;999.90;;;3.10;99.90;;;;;;5111139;28;20440;-67
2023/02/06 01:30:14;;;;;;;1999.90;999.90;;;3.00;99.90;;;;;;5111061;28;20444;-68
2023/02/06 01:32:41;;;;;;;1999.90;999.90;;;3.00;99.90;;;;;;5110466;28;20444;-67
2023/02/06 01:35:10;;;;;;;1999.90;999.90;;;3.00;99.90;;;;;;5110840;28;20437;-67
2023/02/06 01:37:37;;;;;;;1999.90;999.90;;;3.00;99.90;;;;;;5110289;28;20477;-67
2023/02/06 01:40:06;;;;;;;1999.90;999.90;;;2.90;99.90;;;;;;5110804;28;20445;-67
2023/02/06 01:42:34;;;;;;;1999.90;999.90;;;2.90;99.90;;;;;;5110742;28;20797;-67
2023/02/06 01:45:43;;;;;;;1999.90;999.90;;;2.90;99.90;;;;;;5110651;28;20441;-67
2023/02/06 01:48:14;;;;;;;1999.90;999.90;;;2.90;99.90;;;;;;5087606;28;20460;-67
2023/02/06 01:50:44;;;;;;;1999.90;999.90;;;2.90;99.90;;;;;;5110340;28;20449;-67
2023/02/06 01:53:12;;;;;;;1999.90;999.90;;;2.90;99.90;;;;;;5110385;28;20436;-67
2023/02/06 01:55:42;;;;;;;1999.90;999.90;;;2.90;99.90;;;;;;5110081;28;20468;-67
2023/02/06 01:58:11;;;;;;;1999.90;999.90;;;2.90;99.90;;;;;;5110371;28;20926;-67
2023/02/06 02:00:38;;;;;;;1999.90;999.90;;;2.80;99.90;;;;;;5110104;28;20445;-67
2023/02/06 02:03:06;;;;;;;1999.90;999.90;;;2.80;99.90;;;;;;5110005;28;20441;-67
2023/02/06 02:05:35;;;;;;;1999.90;999.90;;;2.80;99.90;;;;;;5110681;28;20444;-67
2023/02/06 02:08:06;;;;;;;1999.90;999.90;;;2.70;99.90;;;;;;5110421;28;20831;-67
2023/02/06 02:10:33;;;;;;;1999.90;999.90;;;2.70;99.90;;;;;;5110091;28;20445;-66
2023/02/06 02:13:00;;;;;;;1999.90;999.90;;;2.70;99.90;;;;;;5109824;28;21118;-67
2023/02/06 02:15:37;;;;;;;1999.90;999.90;;;2.70;99.90;;;;;;5109879;28;20438;-67
2023/02/06 02:18:19;;;;;;;1999.90;999.90;;;2.70;99.90;;;;;;5110388;28;20428;-67
2023/02/06 02:21:20;;;;;;;1999.90;999.90;;;2.70;99.90;;;;;;5109973;28;20445;-69
2023/02/06 02:23:52;;;;;;;1999.90;999.90;;;2.70;99.90;;;;;;5109978;28;20850;-67
2023/02/06 02:26:56;;;;;;;1999.90;999.90;;;2.70;99.90;;;;;;5110360;28;20445;-67
2023/02/06 02:29:57;;;;;;;1999.90;999.90;;;2.80;99.90;;;;;;5109998;28;20433;-67
2023/02/06 02:32:53;;;;;;;1999.90;999.90;;;2.80;99.90;;;;;;5109891;28;20436;-67
2023/02/06 02:35:32;;;;;;;1999.90;999.90;;;2.80;99.90;;;;;;5109940;28;20437;-67
2023/02/06 02:38:06;;;;;;;1999.90;999.90;;;2.80;99.90;;;;;;5108666;28;20477;-68
2023/02/06 02:40:42;;;;;;;1999.90;999.90;;;2.90;99.90;;;;;;5110253;28;20433;-68
2023/02/06 02:43:15;;;;;;;1999.90;999.90;;;2.90;99.90;;;;;;5109195;28;20448;-67
2023/02/06 02:45:48;;;;;;;1999.90;999.90;;;2.90;99.90;;;;;;5109684;28;20561;-68
2023/02/06 02:48:18;;;;;;;1999.90;999.90;;;2.90;99.90;;;;;;5109608;28;20927;-67
2023/02/06 02:50:46;;;;;;;1999.90;999.90;;;2.90;99.90;;;;;;5109299;28;20802;-67
2023/02/06 02:53:13;;;;;;;1999.90;999.90;;;2.90;99.90;;;;;;5109279;28;20437;-67
2023/02/06 02:55:41;;;;;;;1999.90;999.90;;;2.90;99.90;;;;;;5109453;28;20472;-67
2023/02/06 02:58:10;;;;;;;1999.90;999.90;;;2.90;99.90;;;;;;5109676;28;20895;-67
2023/02/06 03:00:42;;;;;;;1999.90;999.90;;;2.90;99.90;;;;;;5108870;28;20457;-68
2023/02/06 03:03:11;;;;;;;1999.90;999.90;;;3.00;99.90;;;;;;5109061;28;20449;-67
2023/02/06 03:05:44;;;;;;;1999.90;999.90;;;3.00;99.90;;;;;;5109634;28;20457;-67
2023/02/06 03:08:22;;;;;;;1999.90;999.90;;;3.10;99.90;;;;;;5109536;28;20456;-68
2023/02/06 03:11:03;;;;;;;1999.90;999.90;;;3.10;99.90;;;;;;5109382;28;20436;-68
2023/02/06 03:13:34;;;;;;;1999.90;999.90;;;3.00;99.90;;;;;;5108952;28;20444;-68
2023/02/06 03:16:06;;;;;;;1999.90;999.90;;;2.90;99.90;;;;;;5109487;28;20461;-67
2023/02/06 03:18:40;;;;;;;1999.90;999.90;;;2.90;99.90;;;;;;5109376;28;20436;-67
2023/02/06 03:21:10;;;;;;;1999.90;999.90;;;3.00;99.90;;;;;;5109438;28;20492;-68
2023/02/06 03:23:41;;;;;;;1999.90;999.90;;;3.00;99.90;;;;;;5109021;28;20456;-68
2023/02/06 03:26:11;;;;;;;1999.90;999.90;;;3.10;99.90;;;;;;5109048;28;20460;-67
2023/02/06 03:28:42;;;;;;;1999.90;999.90;;;3.10;99.90;;;;;;5109170;28;20922;-67
2023/02/06 03:31:13;;;;;;;1999.90;999.90;;;3.10;99.90;;;;;;5088710;28;20434;-68
2023/02/06 03:33:44;;;;;;;1999.90;999.90;;;3.10;99.90;;;;;;5088688;28;20445;-67
2023/02/06 03:36:15;;;;;;;1999.90;999.90;;;3.00;99.90;;;;;;5088520;28;20458;-68
2023/02/06 03:38:44;;;;;;;1999.90;999.90;;;3.10;99.90;;;;;;5088849;28;20483;-67
2023/02/06 03:41:13;;;;;;;1999.90;999.90;;;3.10;99.90;;;;;;5089002;28;20821;-67
2023/02/06 03:43:43;;;;;;;1999.90;999.90;;;3.10;99.90;;;;;;5088373;28;20436;-67
2023/02/06 03:46:12;;;;;;;1999.90;999.90;;;3.10;99.90;;;;;;5088885;28;20491;-68
2023/02/06 03:48:42;;;;;;;1999.90;999.90;;;3.00;99.90;;;;;;5090372;28;20441;-66
2023/02/06 03:51:14;;;;;;;1999.90;999.90;;;3.00;99.90;;;;;;5112139;28;20463;-67
2023/02/06 03:53:42;;;;;;;1999.90;999.90;;;2.90;99.90;;;;;;5112147;28;20941;-67
2023/02/06 03:56:15;;;;;;;1999.90;999.90;;;2.90;99.90;;;;;;5112509;28;20963;-67
2023/02/06 03:58:42;;;;;;;1999.90;999.90;;;2.80;99.90;;;;;;5112476;28;20465;-67
2023/02/06 04:01:10;;;;;;;1999.90;999.90;;;2.70;99.90;;;;;;5112396;28;20929;-67
2023/02/06 04:03:37;;;;;;;1999.90;999.90;;;2.70;99.90;;;;;;5112046;28;20460;-67
2023/02/06 04:06:04;;;;;;;1999.90;999.90;;;2.70;99.90;;;;;;5112111;28;20457;-67
2023/02/06 04:08:30;;;;;;;1999.90;999.90;;;2.60;99.90;;;;;;5112332;28;20437;-67
2023/02/06 04:10:57;;;;;;;1999.90;999.90;;;2.60;99.90;;;;;;5112291;28;20531;-67
2023/02/06 04:13:25;;;;;;;1999.90;999.90;;;2.60;99.90;;;;;;5112104;28;20440;-67
2023/02/06 04:15:55;;;;;;;1999.90;999.90;;;2.60;99.90;;;;;;5112176;28;20461;-68
2023/02/06 04:18:22;;;;;;;1999.90;999.90;;;2.60;99.90;;;;;;5111973;28;20500;-67
2023/02/06 04:20:51;;;;;;;1999.90;999.90;;;2.60;99.90;;;;;;5112375;28;20467;-67
2023/02/06 04:23:18;;;;;;;1999.90;999.90;;;2.60;99.90;;;;;;5112146;28;20448;-67
2023/02/06 04:25:45;;;;;;;1999.90;999.90;;;2.60;99.90;;;;;;5112281;27;20453;-66
2023/02/06 04:28:12;;;;;;;1999.90;999.90;;;2.60;99.90;;;;;;5112209;28;20449;-67
2023/02/06 04:30:40;;;;;;;1999.90;999.90;;;2.60;99.90;;;;;;5111176;28;20970;-67
2023/02/06 04:33:06;;;;;;;1999.90;999.90;;;2.50;99.90;;;;;;5112061;28;20828;-67
2023/02/06 04:35:33;;;;;;;1999.90;999.90;;;2.60;99.90;;;;;;5111521;28;20958;-67
2023/02/06 04:38:00;;;;;;;1999.90;999.90;;;2.50;99.90;;;;;;5111784;28;20481;-66
2023/02/06 04:40:27;;;;;;;1999.90;999.90;;;2.50;99.90;;;;;;5111516;28;20476;-67
2023/02/06 04:42:53;;;;;;;1999.90;999.90;;;2.60;99.90;;;;;;5111145;28;20939;-67
2023/02/06 04:45:20;;;;;;;1999.90;999.90;;;2.60;99.90;;;;;;5111453;28;20884;-66
2023/02/06 04:47:49;;;;;;;1999.90;999.90;;;2.60;99.90;;;;;;5111531;28;20488;-67
2023/02/06 04:50:16;;;;;;;1999.90;999.90;;;2.60;99.90;;;;;;5111473;28;20869;-67
2023/02/06 04:52:43;;;;;;;1999.90;999.90;;;2.50;99.90;;;;;;5111150;28;20458;-67
2023/02/06 04:55:10;;;;;;;1999.90;999.90;;;2.50;99.90;;;;;;5111420;28;20445;-66
2023/02/06 04:57:37;;;;;;;1999.90;999.90;;;2.50;99.90;;;;;;5111335;28;20525;-67
2023/02/06 05:00:05;;;;;;;1999.90;999.90;;;2.50;99.90;;;;;;5110076;28;20448;-66
2023/02/06 05:02:36;;;;;;;1999.90;999.90;;;2.60;99.90;;;;;;5110936;28;20481;-66
2023/02/06 05:05:04;;;;;;;1999.90;999.90;;;2.50;99.90;;;;;;5111199;28;20508;-67
2023/02/06 05:07:31;;;;;;;1999.90;999.90;;;2.40;99.90;;;;;;5111184;28;20460;-67
2023/02/06 05:09:58;;;;;;;1999.90;999.90;;;2.40;99.90;;;;;;5110855;28;20448;-67
2023/02/06 05:12:24;;;;;;;1999.90;999.90;;;2.40;99.90;;;;;;5110738;28;20452;-66
2023/02/06 05:14:51;;;;;;;1999.90;999.90;;;2.40;99.90;;;;;;5111154;28;20448;-69
2023/02/06 05:17:18;;;;;;;1999.90;999.90;;;2.40;99.90;;;;;;5110811;28;20555;-67
2023/02/06 05:19:45;;;;;;;1999.90;999.90;;;2.40;99.90;;;;;;5110722;28;20445;-66
2023/02/06 05:22:13;;;;;;;1999.90;999.90;;;2.40;99.90;;;;;;5110630;28;20867;-67
2023/02/06 05:24:40;;;;;;;1999.90;999.90;;;2.40;99.90;;;;;;5110638;27;20449;-66
2023/02/06 05:27:07;;;;;;;1999.90;999.90;;;2.50;99.90;;;;;;5111587;28;20469;-66
2023/02/06 05:29:33;;;;;;;1999.90;999.90;;;2.50;99.90;;;;;;5110261;28;20444;-67
2023/02/06 05:32:00;;;;;;;1999.90;999.90;;;2.50;99.90;;;;;;5110698;28;20930;-66
2023/02/06 05:34:27;;;;;;;1999.90;999.90;;;2.50;99.90;;;;;;5110486;28;20491;-67
2023/02/06 05:36:54;;;;;;;1999.90;999.90;;;2.40;99.90;;;;;;5110569;28;20964;-68
2023/02/06 05:39:22;;;;;;;1999.90;999.90;;;2.40;99.90;;;;;;5110309;28;20446;-68
2023/02/06 05:41:49;;;;;;;1999.90;999.90;;;2.50;99.90;;;;;;5110033;28;20445;-67
2023/02/06 05:44:15;;;;;;;1999.90;999.90;;;2.50;99.90;;;;;;5110104;28;20445;-68
2023/02/06 05:46:43;;;;;;;1999.90;999.90;;;2.50;99.90;;;;;;5110145;28;20469;-66
2023/02/06 05:49:09;;;;;;;1999.90;999.90;;;2.60;99.90;;;;;;5110035;28;20449;-67
2023/02/06 05:51:36;;;;;;;1999.90;999.90;;;2.60;99.90;;;;;;5110333;28;20444;-67
2023/02/06 05:54:03;;;;;;;1999.90;999.90;;;2.50;99.90;;;;;;5109596;28;20456;-67
2023/02/06 05:56:31;;;;;;;1999.90;999.90;;;2.50;99.90;;;;;;5110210;28;20468;-67
2023/02/06 05:58:58;;;;;;;1999.90;999.90;;;2.50;99.90;;;;;;5109650;28;20499;-68
2023/02/06 06:01:27;;;;;;;1999.90;999.90;;;2.50;99.90;;;;;;5109601;28;20971;-67
2023/02/06 06:03:54;;;;;;;1999.90;999.90;;;2.50;99.90;;;;;;5109236;28;20476;-67
2023/02/06 06:06:20;;;;;;;1999.90;999.90;;;2.50;99.90;;;;;;5109299;28;20462;-69
2023/02/06 06:08:47;;;;;;;1999.90;999.90;;;2.50;99.90;;;;;;5109381;28;20455;-68
2023/02/06 06:11:14;;;;;;;1999.90;999.90;;;2.50;99.90;;;;;;5109143;28;20453;-67
2023/02/06 06:13:42;;;;;;;1999.90;999.90;;;2.50;99.90;;;;;;5109467;28;20437;-67
2023/02/06 06:16:09;;;;;;;1999.90;999.90;;;2.50;99.90;;;;;;5118393;27;20696;-68
2023/02/06 06:18:36;;;;;;;1999.90;999.90;;;2.60;99.90;;;;;;5109140;28;20469;-68
2023/02/06 06:21:02;;;;;;;1999.90;999.90;;;2.70;99.90;;;;;;5109335;28;20954;-66
2023/02/06 06:23:29;;;;;;;1999.90;999.90;;;2.60;99.90;;;;;;5109698;28;20472;-67
2023/02/06 06:25:56;;;;;;;1999.90;999.90;;;2.60;99.90;;;;;;5109894;28;20460;-67
2023/02/06 06:28:22;;;;;;;1999.90;999.90;;;2.70;99.90;;;;;;5109987;28;20447;-66
2023/02/06 06:30:51;;;;;;;1999.90;999.90;;;2.70;99.90;;;;;;5109611;28;20451;-67
2023/02/06 06:33:17;;;;;;;1999.90;999.90;;;2.60;99.90;;;;;;5109135;28;20452;-66
2023/02/06 06:35:44;;;;;;;1999.90;999.90;;;2.70;99.90;;;;;;5109487;28;20843;-66
2023/02/06 06:38:11;;;;;;;1999.90;999.90;;;2.60;99.90;;;;;;5109587;28;20521;-66
2023/02/06 06:40:38;;;;;;;1999.90;999.90;;;2.70;99.90;;;;;;5109143;28;20441;-67
2023/02/06 06:43:05;;;;;;;1999.90;999.90;;;2.70;99.90;;;;;;5109205;28;20510;-66
2023/02/06 06:45:32;;;;;;;1999.90;999.90;;;2.70;99.90;;;;;;5109138;28;20449;-67
2023/02/06 06:48:00;;;;;;;1999.90;999.90;;;2.70;99.90;;;;;;5109325;28;20441;-67
2023/02/06 06:50:26;;;;;;;1999.90;999.90;;;2.60;99.90;;;;;;5101422;28;20465;-67
2023/02/06 06:52:53;;;;;;;1999.90;999.90;;;2.60;99.90;;;;;;5108544;28;20449;-66
2023/02/06 06:55:20;;;;;;;1999.90;999.90;;;2.60;99.90;;;;;;5105270;28;20464;-67
2023/02/06 06:57:47;;;;;;;1999.90;999.90;;;2.60;99.90;;;;;;5108092;28;20479;-66
2023/02/06 07:00:15;;;;;;;1999.90;999.90;;;2.50;99.90;;;;;;5108965;28;20437;-66
2023/02/06 07:02:43;;;;;;;1999.90;999.90;;;2.50;99.90;;;;;;5108588;28;20460;-67
2023/02/06 07:05:11;;;;;;;1999.90;999.90;;;2.50;99.90;;;;;;5109402;28;20794;-67
2023/02/06 07:07:38;;;;;;;1999.90;999.90;;;2.50;99.90;;;;;;5108815;28;20467;-67
2023/02/06 07:10:06;;;;;;;1999.90;999.90;;;2.50;99.90;;;;;;5111252;28;20530;-68
2023/02/06 07:12:33;;;;;;;1999.90;999.90;;;2.50;99.90;;;;;;5108005;28;20445;-66
2023/02/06 07:15:00;;;;;;;1999.90;999.90;;;2.50;99.90;;;;;;5107159;28;20452;-68
2023/02/06 07:17:26;;;;;;;1999.90;999.90;;;2.50;99.90;;;;;;5105357;28;20488;-68
2023/02/06 07:19:53;;;;;;;1999.90;999.90;;;2.50;99.90;;;;;;5108804;28;20449;-67
2023/02/06 07:22:22;;;;;;;1999.90;999.90;;;2.50;99.90;;;;;;5109169;28;20931;-67
2023/02/06 07:24:48;;;;;;;1999.90;999.90;;;2.60;99.90;;;;;;5112852;28;20452;-67
2023/02/06 07:27:15;;;;;;;1999.90;999.90;;;2.60;99.90;;;;;;5112161;28;20468;-67
2023/02/06 07:29:42;;;;;;;1999.90;999.90;;;2.60;99.90;;;;;;5113227;28;20815;-69
2023/02/06 07:32:09;;;;;;;1999.90;999.90;;;2.70;99.90;;;;;;5115157;28;20441;-69
2023/02/06 07:34:37;;;;;;;1999.90;999.90;;;2.70;99.90;;;;;;5113243;28;20449;-69
2023/02/06 07:37:04;;;;;;;1999.90;999.90;;;2.70;99.90;;;;;;5113196;28;20473;-67
2023/02/06 07:39:32;;;;;;;1999.90;999.90;;;2.80;99.90;;;;;;5112903;28;20502;-67
2023/02/06 07:41:59;;;;;;;1999.90;999.90;;;2.80;99.90;;;;;;5112386;28;20437;-66
2023/02/06 07:44:25;;;;;;;1999.90;999.90;;;2.80;99.90;;;;;;5112653;28;21026;-67
2023/02/06 07:46:52;;;;;;;1999.90;999.90;;;2.70;99.90;;;;;;5112726;28;20465;-67
2023/02/06 07:49:19;;;;;;;1999.90;999.90;;;2.80;99.90;;;;;;5111862;28;20441;-67
2023/02/06 07:51:46;;;;;;;1999.90;999.90;;;2.80;99.90;;;;;;5112741;28;20444;-67
2023/02/06 07:54:13;;;;;;;1999.90;999.90;;;2.80;99.90;;;;;;5112405;28;21017;-67
2023/02/06 07:56:42;;;;;;;1999.90;999.90;;;2.80;99.90;;;;;;5112242;28;20477;-67
2023/02/06 07:59:08;;;;;;;1999.90;999.90;;;2.80;99.90;;;;;;5111963;28;20481;-67
2023/02/06 08:01:36;;;;;;;1999.90;999.90;;;2.80;99.90;;;;;;5111244;28;20441;-67
2023/02/06 08:04:03;;;;;;;1999.90;999.90;;;2.80;99.90;;;;;;5111768;28;20449;-67
2023/02/06 08:06:30;;;;;;;1999.90;999.90;;;2.90;99.90;;;;;;5112113;28;20472;-67
2023/02/06 08:08:57;;;;;;;1999.90;999.90;;;3.00;99.90;;;;;;5112361;28;20446;-67
2023/02/06 08:11:26;;;;;;;1999.90;999.90;;;3.00;99.90;;;;;;5112549;28;20457;-65
2023/02/06 08:13:54;;;;;;;1999.90;999.90;;;3.00;99.90;;;;;;5112253;28;20441;-67
2023/02/06 08:16:23;;;;;;;1999.90;999.90;;;3.00;99.90;;;;;;5112351;28;20462;-66
2023/02/06 08:18:50;;;;;;;1999.90;999.90;;;2.90;99.90;;;;;;5111823;28;20473;-67
2023/02/06 08:21:20;;;;;;;1999.90;999.90;;;2.90;99.90;;;;;;5113021;28;20467;-68
2023/02/06 08:23:47;;;;;;;1999.90;999.90;;;2.90;99.90;;;;;;5112482;28;20499;-68
2023/02/06 08:26:16;;;;;;;1999.90;999.90;;;2.90;99.90;;;;;;5112503;28;20465;-67
2023/02/06 08:28:44;;;;;;;1999.90;999.90;;;3.00;99.90;;;;;;5112211;28;20441;-68
2023/02/06 08:31:15;;;;;;;1999.90;999.90;;;3.10;99.90;;;;;;5112252;28;20452;-68
2023/02/06 08:33:42;;;;;;;1999.90;999.90;;;3.10;99.90;;;;;;5112110;28;20449;-68
2023/02/06 08:36:09;;;;;;;1999.90;999.90;;;3.10;99.90;;;;;;5111755;28;20465;-68
2023/02/06 08:38:37;;;;;;;1999.90;999.90;;;3.10;99.90;;;;;;5111585;28;20484;-66
2023/02/06 08:41:04;;;;;;;1999.90;999.90;;;3.20;99.90;;;;;;5111707;28;20969;-68
2023/02/06 08:43:31;;;;;;;1999.90;999.90;;;3.20;99.90;;;;;;5111360;28;20817;-66
2023/02/06 08:45:58;;;;;;;1999.90;999.90;;;3.10;99.90;;;;;;5111299;28;20666;-68
2023/02/06 08:48:29;;;;;;;1999.90;999.90;;;3.10;99.90;;;;;;5111893;28;20449;-66
2023/02/06 08:51:03;;;;;;;1999.90;999.90;;;3.20;99.90;;;;;;5111123;28;20524;-67
2023/02/06 08:53:30;;;;;;;1999.90;999.90;;;3.30;99.90;;;;;;5111139;28;20456;-66
2023/02/06 08:55:59;;;;;;;1999.90;999.90;;;3.30;99.90;;;;;;5111474;28;20465;-69
2023/02/06 08:58:27;;;;;;;1999.90;999.90;;;3.20;99.90;;;;;;5111228;28;20477;-68
2023/02/06 09:00:54;;;;;;;1999.90;999.90;;;3.10;99.90;;;;;;5111159;28;20445;-68
2023/02/06 09:03:21;;;;;;;1999.90;999.90;;;3.10;99.90;;;;;;5110739;28;20855;-68
2023/02/06 09:05:50;;;;;;;1999.90;999.90;;;3.10;99.90;;;;;;5111196;28;20518;-68
2023/02/06 09:08:16;;;;;;;1999.90;999.90;;;3.10;99.90;;;;;;5111320;28;20450;-69
2023/02/06 09:10:43;;;;;;;1999.90;999.90;;;3.00;99.90;;;;;;5111113;28;20813;-68
2023/02/06 09:13:10;;;;;;;1999.90;999.90;;;3.10;99.90;;;;;;5110667;28;20458;-67
2023/02/06 09:15:44;;;;;;;1999.90;999.90;;;3.00;99.90;;;;;;5110906;28;20532;-69
2023/02/06 09:18:10;;;;;;;1999.90;999.90;;;3.10;99.90;;;;;;5111002;28;21094;-68
2023/02/06 09:20:37;;;;;;;1999.90;999.90;;;3.20;99.90;;;;;;5110377;28;20950;-68
2023/02/06 09:23:07;;;;;;;1999.90;999.90;;;3.50;99.90;;;;;;5110363;28;20943;-68
2023/02/06 09:25:40;;;;;;;1999.90;999.90;;;3.70;99.90;;;;;;5110522;28;20448;-69
2023/02/06 09:28:07;;;;;;;1999.90;999.90;;;3.90;99.90;;;;;;5111223;28;20452;-68
2023/02/06 09:30:34;;;;;;;1999.90;999.90;;;4.00;99.90;;;;;;5110413;28;20448;-68
2023/02/06 09:33:01;;;;;;;1999.90;999.90;;;4.20;99.90;;;;;;5110444;28;20895;-68
2023/02/06 09:35:27;;;;;;;1999.90;999.90;;;4.50;99.90;;;;;;5110285;28;20437;-69
2023/02/06 09:37:54;;;;;;;1999.90;999.90;;;4.40;99.90;;;;;;5110456;28;20448;-68
2023/02/06 09:40:26;;;;;;;1999.90;999.90;;;4.60;99.90;;;;;;5110336;28;20446;-66
2023/02/06 09:42:54;;;;;;;1999.90;999.90;;;4.90;99.90;;;;;;5110380;28;20441;-68
2023/02/06 09:45:24;;;;;;;1999.90;999.90;;;5.10;99.90;;;;;;5110006;28;20456;-67
2023/02/06 09:47:54;;;;;;;1999.90;999.90;;;5.20;99.90;;;;;;5110376;28;20476;-67
2023/02/06 09:50:26;;;;;;;1999.90;999.90;;;5.20;99.90;;;;;;5109996;28;20820;-68
2023/02/06 09:53:10;;;;;;;1999.90;999.90;;;5.30;99.90;;;;;;5109865;28;20567;-68
2023/02/06 09:55:41;;;;;;;1999.90;999.90;;;5.30;99.90;;;;;;5110313;28;20455;-69
2023/02/06 09:58:21;;;;;;;1999.90;999.90;;;5.40;99.90;;;;;;5109990;28;20481;-68
2023/02/06 10:00:53;;;;;;;1999.90;999.90;;;5.40;99.90;;;;;;5109936;28;20449;-69
2023/02/06 10:03:34;;;;;;;1999.90;999.90;;;5.30;99.90;;;;;;5109572;28;20565;-68
2023/02/06 10:06:12;;;;;;;1999.90;999.90;;;5.30;99.90;;;;;;5110179;28;20465;-68
2023/02/06 10:08:43;;;;;;;1999.90;999.90;;;5.50;99.90;;;;;;5109466;28;20437;-68
2023/02/06 10:11:17;;;;;;;1999.90;999.90;;;5.70;99.90;;;;;;5110102;28;20453;-68
2023/02/06 10:13:48;;;;;;;1999.90;999.90;;;5.60;99.90;;;;;;5109745;28;20448;-67
2023/02/06 10:16:29;;;;;;;1999.90;999.90;;;5.40;99.90;;;;;;5110167;28;20518;-67
2023/02/06 10:19:00;;;;;;;1999.90;999.90;;;5.20;99.90;;;;;;5109734;28;20473;-67
2023/02/06 10:21:32;;;;;;;1999.90;999.90;;;4.90;99.90;;;;;;5110057;28;20456;-67
2023/02/06 10:24:06;;;;;;;1999.90;999.90;;;4.90;99.90;;;;;;5110035;28;20449;-67
2023/02/06 10:26:39;;;;;;;1999.90;999.90;;;5.10;99.90;;;;;;5110029;28;20467;-67
2023/02/06 10:29:11;;;;;;;1999.90;999.90;;;5.30;99.90;;;;;;5109720;28;21164;-67
2023/02/06 10:31:50;;;;;;;1999.90;999.90;;;5.50;99.90;;;;;;5109866;28;20445;-68
2023/02/06 10:34:38;;;;;;;1999.90;999.90;;;5.70;99.90;;;;;;5109775;28;20440;-68
2023/02/06 10:37:18;;;;;;;1999.90;999.90;;;5.70;99.90;;;;;;5109698;28;20458;-67
2023/02/06 10:40:17;;;;;;;1999.90;999.90;;;5.80;99.90;;;;;;5109077;28;20469;-67
2023/02/06 10:42:53;;;;;;;1999.90;999.90;;;5.80;99.90;;;;;;5065161;28;20454;-68
2023/02/06 10:45:38;;;;;;;1999.90;999.90;;;5.80;99.90;;;;;;5089431;28;20450;-68
2023/02/06 10:48:16;;;;;;;1999.90;999.90;;;6.00;99.90;;;;;;5089111;28;20438;-68
2023/02/06 10:50:47;;;;;;;1999.90;999.90;;;6.10;99.90;;;;;;5107332;28;20448;-68
2023/02/06 10:53:19;;;;;;;1999.90;999.90;;;6.10;99.90;;;;;;5109308;28;20436;-68
2023/02/06 10:55:50;;;;;;;1999.90;999.90;;;6.10;99.90;;;;;;5109480;28;20981;-68
2023/02/06 10:58:24;;;;;;;1999.90;999.90;;;6.10;99.90;;;;;;5110457;28;20444;-68
2023/02/06 11:00:52;;;;;;;1999.90;999.90;;;6.00;99.90;;;;;;5113387;28;20453;-67
2023/02/06 11:03:21;;;;;;;1999.90;999.90;;;6.00;99.90;;;;;;5113405;28;20445;-68
2023/02/06 11:05:48;;;;;;;1999.90;999.90;;;6.00;99.90;;;;;;5113577;28;20465;-68
2023/02/06 11:08:20;;;;;;;1999.90;999.90;;;5.90;99.90;;;;;;5113728;28;20869;-67
2023/02/06 11:10:47;;;;;;;1999.90;999.90;;;5.80;99.90;;;;;;5113476;28;20972;-68
2023/02/06 11:13:21;;;;;;;1999.90;999.90;;;5.80;99.90;;;;;;5112986;28;20445;-66
2023/02/06 11:15:56;;;;;;;1999.90;999.90;;;5.80;99.90;;;;;;5113147;28;20496;-67
2023/02/06 11:18:29;;;;;;;1999.90;999.90;;;5.90;99.90;;;;;;5107524;28;20440;-69
2023/02/06 11:20:56;;;;;;;1999.90;999.90;;;5.90;99.90;;;;;;5111353;28;20798;-67
2023/02/06 11:23:25;;;;;;;1999.90;999.90;;;5.90;99.90;;;;;;5111108;28;20801;-67
2023/02/06 11:26:03;;;;;;;1999.90;999.90;;;5.80;99.90;;;;;;5111509;28;21023;-68
2023/02/06 11:28:30;;;;;;;1999.90;999.90;;;5.90;99.90;;;;;;5111817;28;20455;-68
2023/02/06 11:31:01;;;;;;;1999.90;999.90;;;6.00;99.90;;;;;;5110939;27;20448;-68
2023/02/06 11:33:36;;;;;;;1999.90;999.90;;;6.00;99.90;;;;;;5111345;28;20803;-68
2023/02/06 11:36:05;;;;;;;1999.90;999.90;;;6.10;99.90;;;;;;5111562;28;20452;-68
2023/02/06 11:38:33;;;;;;;1999.90;999.90;;;6.10;99.90;;;;;;5110803;28;20468;-68
2023/02/06 11:41:02;;;;;;;1999.90;999.90;;;6.00;99.90;;;;;;5110508;28;20449;-67
2023/02/06 11:43:32;;;;;;;1999.90;999.90;;;5.60;99.90;;;;;;5110833;28;20453;-68
2023/02/06 11:46:12;;;;;;;1999.90;999.90;;;5.30;99.90;;;;;;5111654;28;20480;-68
2023/02/06 11:48:41;;;;;;;1999.90;999.90;;;5.30;99.90;;;;;;5109782;27;20971;-68
2023/02/06 11:51:09;;;;;;;1999.90;999.90;;;5.40;99.90;;;;;;5106454;28;20452;-68
2023/02/06 11:53:37;;;;;;;1999.90;999.90;;;5.40;99.90;;;;;;5110557;28;20927;-68
2023/02/06 11:56:14;;;;;;;1999.90;999.90;;;5.40;99.90;;;;;;5110403;28;20476;-68
2023/02/06 11:58:41;;;;;;;1999.90;999.90;;;5.30;99.90;;;;;;5110583;28;20437;-67
2023/02/06 12:01:18;;;;;;;1999.90;999.90;;;5.00;99.90;;;;;;5110268;28;20433;-68
2023/02/06 12:03:54;;;;;;;1999.90;999.90;;;4.80;99.90;;;;;;5110104;28;20958;-67
2023/02/06 12:06:29;;;;;;;1999.90;999.90;;;4.90;99.90;;;;;;5110259;28;20469;-67
2023/02/06 12:08:58;;;;;;;1999.90;999.90;;;4.80;99.90;;;;;;5109673;28;20437;-68
2023/02/06 12:11:28;;;;;;;1999.90;999.90;;;4.70;99.90;;;;;;5110969;28;20441;-68
2023/02/06 12:13:59;;;;;;;1999.90;999.90;;;4.60;99.90;;;;;;5110363;28;20446;-68
2023/02/06 12:16:27;;;;;;;1999.90;999.90;;;4.50;99.90;;;;;;5110437;28;20970;-67
2023/02/06 12:18:57;;;;;;;1999.90;999.90;;;4.40;99.90;;;;;;5110524;27;20453;-67
2023/02/06 12:21:34;;;;;;;1999.90;999.90;;;4.40;99.90;;;;;;5110805;28;20442;-68